Time;durP1;ratioP1;P1;durP2;ratioP2;P2;SDS_P1;SDS_P2;PMS_P1;PMS_P2;Temp;Humidity;BMP_temperature;BMP_pressure;BME280_temperature;BME280_humidity;BME280_pressure;Samples;Min_cycle;Max_cycle;Signal;HPM_P1;HPM_P2
2022/04/24 00:01:24;;;;;;;0.20;0.20;;;;;;;20.36;41.07;99734.28;5141248;27;20074;-24
2022/04/24 00:03:50;;;;;;;0.10;0.10;;;;;;;20.36;41.10;99739.81;5138767;27;20091;-24
2022/04/24 00:06:21;;;;;;;0.10;0.10;;;;;;;20.36;40.94;99733.47;5140922;27;20123;-23
2022/04/24 00:08:46;;;;;;;0.20;0.20;;;;;;;20.36;40.94;99730.72;5143839;27;20038;-24
2022/04/24 00:11:12;;;;;;;0.20;0.20;;;;;;;20.36;41.14;99726.00;5140133;27;20051;-24
2022/04/24 00:13:41;;;;;;;0.10;0.10;;;;;;;20.36;40.91;99725.19;5141269;27;20043;-24
2022/04/24 00:16:08;;;;;;;0.20;0.20;;;;;;;20.36;41.07;99727.94;5138113;27;20141;-24
2022/04/24 00:18:34;;;;;;;0.10;0.10;;;;;;;20.36;41.21;99719.66;5141671;27;20040;-24
2022/04/24 00:21:01;;;;;;;0.20;0.20;;;;;;;20.37;40.83;99721.28;5118293;27;20495;-24
2022/04/24 00:23:27;;;;;;;0.10;0.10;;;;;;;20.36;40.96;99728.75;5139381;27;20051;-24
2022/04/24 00:25:53;;;;;;;0.20;0.20;;;;;;;20.36;40.89;99723.22;5143295;27;20130;-25
2022/04/24 00:28:19;;;;;;;0.20;0.20;;;;;;;20.36;41.31;99719.66;5141840;27;20038;-25
2022/04/24 00:30:44;;;;;;;0.10;0.10;;;;;;;20.36;41.20;99722.41;5137782;27;20058;-25
2022/04/24 00:33:10;;;;;;;0.10;0.10;;;;;;;20.37;40.91;99721.28;5142798;27;20039;-25
2022/04/24 00:35:36;;;;;;;0.10;0.10;;;;;;;20.36;40.98;99717.69;5123718;27;20043;-24
2022/04/24 00:38:01;;;;;;;0.20;0.20;;;;;;;20.36;40.98;99719.66;5141286;27;20049;-23
2022/04/24 00:40:27;;;;;;;0.20;0.20;;;;;;;20.37;40.83;99724.03;5142542;27;20092;-23
2022/04/24 00:42:52;;;;;;;0.10;0.10;;;;;;;20.36;41.04;99716.88;5139664;27;20038;-23
2022/04/24 00:45:18;;;;;;;0.20;0.20;;;;;;;20.37;40.94;99718.50;5145618;27;20401;-24
2022/04/24 00:47:44;;;;;;;0.20;0.20;;;;;;;20.36;41.09;99717.69;5137423;27;20035;-23
2022/04/24 00:50:10;;;;;;;0.20;0.20;;;;;;;20.36;40.83;99719.66;5138076;27;20043;-24
2022/04/24 00:52:36;;;;;;;0.20;0.20;;;;;;;20.36;40.86;99719.66;5140504;27;20440;-24
2022/04/24 00:55:02;;;;;;;0.10;0.10;;;;;;;20.37;41.24;99715.75;5143841;27;20481;-25
2022/04/24 00:57:27;;;;;;;0.17;0.17;;;;;;;20.36;41.00;99716.88;5146893;27;20035;-24
2022/04/24 00:59:53;;;;;;;0.10;0.10;;;;;;;20.36;41.34;99720.47;5128698;27;20496;-24
2022/04/24 01:02:19;;;;;;;0.10;0.10;;;;;;;20.36;40.83;99714.13;5141005;27;20039;-24
2022/04/24 01:04:45;;;;;;;0.10;0.10;;;;;;;20.36;40.83;99709.41;5150686;27;20039;-24
2022/04/24 01:07:11;;;;;;;0.10;0.10;;;;;;;20.37;41.19;99712.97;5129004;27;20478;-25
2022/04/24 01:09:37;;;;;;;0.10;0.10;;;;;;;20.37;41.06;99718.50;5146759;27;20134;-24
2022/04/24 01:12:04;;;;;;;0.10;0.10;;;;;;;20.36;40.94;99709.41;5127678;27;20035;-24
2022/04/24 01:14:31;;;;;;;0.20;0.20;;;;;;;20.37;40.82;99713.78;5145481;27;20436;-24
2022/04/24 01:16:58;;;;;;;0.20;0.20;;;;;;;20.36;41.17;99712.16;5139001;27;20043;-24
2022/04/24 01:19:25;;;;;;;0.20;0.20;;;;;;;20.37;41.09;99710.22;5144978;27;20070;-24
2022/04/24 01:21:51;;;;;;;0.10;0.10;;;;;;;20.36;40.99;99712.16;5140763;27;20062;-24
2022/04/24 01:24:19;;;;;;;0.20;0.20;;;;;;;20.37;40.89;99710.22;5145213;27;20057;-24
2022/04/24 01:26:45;;;;;;;0.10;0.10;;;;;;;20.38;41.04;99707.16;5142720;27;20071;-24
2022/04/24 01:29:11;;;;;;;0.10;0.10;;;;;;;20.37;41.24;99711.03;5142669;27;20080;-25
2022/04/24 01:31:38;;;;;;;0.20;0.20;;;;;;;20.37;41.18;99710.22;5143161;27;20067;-24
2022/04/24 01:34:04;;;;;;;0.10;0.10;;;;;;;20.37;41.08;99710.22;5126778;27;21316;-25
2022/04/24 01:36:29;;;;;;;0.10;0.10;;;;;;;20.37;40.87;99705.50;5138511;27;20057;-24
2022/04/24 01:38:55;;;;;;;0.13;0.13;;;;;;;20.37;41.07;99707.44;5126748;27;20047;-25
2022/04/24 01:41:21;;;;;;;0.10;0.10;;;;;;;20.37;41.19;99708.25;5141833;27;20402;-24
2022/04/24 01:43:47;;;;;;;0.20;0.20;;;;;;;20.36;41.01;99703.88;5146869;27;20050;-24
2022/04/24 01:46:13;;;;;;;0.20;0.20;;;;;;;20.38;41.06;99707.16;5142588;27;20520;-24
2022/04/24 01:48:39;;;;;;;0.13;0.13;;;;;;;20.37;41.15;99702.72;5142857;27;20127;-25
2022/04/24 01:51:06;;;;;;;0.20;0.20;;;;;;;20.37;41.09;99711.03;5148791;27;20034;-24
2022/04/24 01:53:33;;;;;;;0.20;0.20;;;;;;;20.37;41.10;99712.97;5148449;27;20133;-24
2022/04/24 01:56:01;;;;;;;0.17;0.17;;;;;;;20.36;41.12;99705.81;5143855;27;20096;-24
2022/04/24 01:58:27;;;;;;;0.20;0.20;;;;;;;20.37;40.93;99704.69;5123690;27;20115;-24
2022/04/24 02:00:53;;;;;;;0.20;0.20;;;;;;;20.38;41.04;99700.78;5137694;27;20054;-24
2022/04/24 02:03:19;;;;;;;0.20;0.20;;;;;;;20.36;40.97;99706.63;5146027;27;20107;-24
2022/04/24 02:05:45;;;;;;;0.15;0.15;;;;;;;20.37;41.25;99708.25;5142828;27;20050;-25
2022/04/24 02:08:11;;;;;;;0.10;0.10;;;;;;;20.37;41.19;99701.91;5123231;27;20051;-24
2022/04/24 02:10:37;;;;;;;0.20;0.20;;;;;;;20.37;41.10;99707.44;5128370;27;20194;-24
2022/04/24 02:13:03;;;;;;;0.10;0.10;;;;;;;20.36;40.94;99708.59;5143346;27;20063;-24
2022/04/24 02:15:28;;;;;;;0.10;0.10;;;;;;;20.37;41.18;99708.25;5122921;27;20046;-24
2022/04/24 02:17:56;;;;;;;0.20;0.20;;;;;;;20.37;41.17;99702.72;5146683;27;20042;-24
2022/04/24 02:20:22;;;;;;;0.20;0.20;;;;;;;20.37;41.13;99702.72;5141847;27;20062;-24
2022/04/24 02:22:48;;;;;;;0.20;0.20;;;;;;;20.38;40.87;99703.53;5141313;27;20119;-24
2022/04/24 02:25:15;;;;;;;0.20;0.20;;;;;;;20.36;41.16;99712.16;5143454;27;20047;-24
2022/04/24 02:27:41;;;;;;;0.20;0.20;;;;;;;20.38;41.21;99706.31;5146024;27;20078;-24
2022/04/24 02:30:07;;;;;;;0.10;0.10;;;;;;;20.38;40.81;99707.16;5145110;27;20133;-25
2022/04/24 02:32:33;;;;;;;0.13;0.13;;;;;;;20.38;40.92;99701.63;5146455;27;20071;-25
2022/04/24 02:34:59;;;;;;;0.15;0.15;;;;;;;20.37;41.18;99702.72;5142852;27;20074;-25
2022/04/24 02:37:25;;;;;;;0.10;0.10;;;;;;;20.37;41.21;99701.91;5144134;27;20043;-24
2022/04/24 02:39:51;;;;;;;0.20;0.20;;;;;;;20.38;40.87;99706.31;5142477;27;20468;-24
2022/04/24 02:42:17;;;;;;;0.20;0.20;;;;;;;20.37;40.82;99712.97;5143836;27;20089;-25
2022/04/24 02:44:42;;;;;;;0.10;0.10;;;;;;;20.37;41.16;99708.25;5144362;27;20389;-25
2022/04/24 02:47:09;;;;;;;0.20;0.20;;;;;;;20.37;41.22;99707.44;5140834;27;20083;-24
2022/04/24 02:49:34;;;;;;;0.20;0.20;;;;;;;20.37;41.25;99702.72;5142124;27;20039;-24
2022/04/24 02:52:00;;;;;;;0.17;0.17;;;;;;;20.36;41.11;99692.81;5138002;27;20549;-24
2022/04/24 02:54:26;;;;;;;0.10;0.10;;;;;;;20.37;41.06;99701.91;5142485;27;20449;-24
2022/04/24 02:56:51;;;;;;;0.10;0.10;;;;;;;20.37;40.98;99702.72;5147049;27;20042;-24
2022/04/24 02:59:17;;;;;;;0.15;0.15;;;;;;;20.38;40.93;99698.00;5142046;27;20047;-24
2022/04/24 03:01:44;;;;;;;0.20;0.20;;;;;;;20.37;41.18;99701.91;5144077;27;20143;-24
2022/04/24 03:04:10;;;;;;;0.13;0.13;;;;;;;20.37;41.00;99699.97;5138152;27;20043;-24
2022/04/24 03:06:36;;;;;;;0.20;0.20;;;;;;;20.37;40.97;99701.91;5146671;27;20111;-24
2022/04/24 03:09:02;;;;;;;0.20;0.20;;;;;;;20.35;41.06;99702.25;5142279;27;20502;-24
2022/04/24 03:11:27;;;;;;;0.10;0.10;;;;;;;20.36;40.96;99700.28;5145620;27;20072;-24
2022/04/24 03:13:53;;;;;;;0.10;0.10;;;;;;;20.37;41.08;99696.38;5139972;27;20057;-24
2022/04/24 03:16:19;;;;;;;0.10;0.10;;;;;;;20.36;40.94;99698.34;5143460;27;20126;-24
2022/04/24 03:18:44;;;;;;;0.20;0.20;;;;;;;20.37;41.11;99699.16;5138948;27;20038;-23
2022/04/24 03:21:10;;;;;;;0.10;0.10;;;;;;;20.37;41.14;99705.50;5141382;27;20397;-24
2022/04/24 03:23:36;;;;;;;0.20;0.20;;;;;;;20.36;41.00;99698.34;5142523;27;20185;-24
2022/04/24 03:26:02;;;;;;;0.17;0.17;;;;;;;20.37;40.94;99705.50;5136459;27;20039;-23
2022/04/24 03:28:27;;;;;;;0.10;0.10;;;;;;;20.37;41.15;99701.91;5148077;27;20088;-24
2022/04/24 03:30:53;;;;;;;0.20;0.20;;;;;;;20.38;40.89;99703.53;5138009;27;20049;-24
2022/04/24 03:33:18;;;;;;;0.10;0.10;;;;;;;20.38;40.92;99703.53;5139161;27;20057;-24
2022/04/24 03:35:44;;;;;;;0.20;0.20;;;;;;;20.36;41.06;99703.88;5119749;27;20497;-24
2022/04/24 03:38:09;;;;;;;0.10;0.10;;;;;;;20.37;40.88;99693.63;5142819;27;20038;-24
2022/04/24 03:40:35;;;;;;;0.20;0.20;;;;;;;20.37;41.19;99694.44;5136069;27;20130;-23
2022/04/24 03:43:01;;;;;;;0.20;0.20;;;;;;;20.37;40.92;99697.19;5143380;27;20058;-25
2022/04/24 03:45:26;;;;;;;0.20;0.20;;;;;;;20.38;40.93;99698.00;5149662;27;20046;-24
2022/04/24 03:47:52;;;;;;;0.13;0.13;;;;;;;20.37;41.14;99699.16;5142624;27;20047;-24
2022/04/24 03:50:19;;;;;;;0.17;0.17;;;;;;;20.37;41.07;99699.97;5143653;27;20380;-24
2022/04/24 03:52:45;;;;;;;0.20;0.20;;;;;;;20.37;41.05;99693.63;5144992;27;20062;-24
2022/04/24 03:55:11;;;;;;;0.13;0.13;;;;;;;20.37;40.92;99696.38;5138622;27;20075;-25
2022/04/24 03:57:37;;;;;;;0.10;0.10;;;;;;;20.38;41.07;99695.25;5140733;27;20062;-24
2022/04/24 04:00:05;;;;;;;0.20;0.20;;;;;;;20.37;40.91;99701.91;5140327;27;20482;-25
2022/04/24 04:02:31;;;;;;;0.20;0.20;;;;;;;20.38;41.10;99695.25;5140884;27;20078;-25
2022/04/24 04:04:57;;;;;;;0.10;0.10;;;;;;;20.36;41.11;99692.81;5136953;27;20049;-25
2022/04/24 04:07:23;;;;;;;0.10;0.10;;;;;;;20.36;41.10;99692.81;5140684;27;20050;-25
2022/04/24 04:09:49;;;;;;;0.20;0.20;;;;;;;20.37;41.22;99690.84;5143005;27;20477;-25
2022/04/24 04:12:14;;;;;;;0.10;0.10;;;;;;;20.37;40.83;99699.16;5144716;27;20049;-24
2022/04/24 04:14:40;;;;;;;0.20;0.20;;;;;;;20.37;41.17;99704.69;5142060;27;20047;-24
2022/04/24 04:17:09;;;;;;;0.20;0.20;;;;;;;20.37;41.16;99707.44;5124768;27;20087;-24
2022/04/24 04:19:34;;;;;;;0.10;0.10;;;;;;;20.37;40.81;99708.25;5138078;27;20570;-24
2022/04/24 04:22:00;;;;;;;0.20;0.20;;;;;;;20.37;41.30;99707.44;5143307;27;20381;-24
2022/04/24 04:24:26;;;;;;;0.10;0.10;;;;;;;20.36;41.18;99712.16;5144507;27;20047;-24
2022/04/24 04:26:51;;;;;;;0.17;0.17;;;;;;;20.36;41.25;99712.16;5145702;27;20047;-24
2022/04/24 04:29:17;;;;;;;0.10;0.10;;;;;;;20.37;40.94;99712.97;5149075;27;20144;-25
2022/04/24 04:31:42;;;;;;;0.10;0.10;;;;;;;20.36;41.01;99712.16;5149023;27;20149;-25
2022/04/24 04:34:08;;;;;;;0.10;0.10;;;;;;;20.37;41.00;99713.78;5141321;27;20046;-24
2022/04/24 04:36:34;;;;;;;0.20;0.20;;;;;;;20.36;40.94;99720.47;5126839;28;20378;-25
2022/04/24 04:39:00;;;;;;;0.20;0.20;;;;;;;20.37;41.17;99716.56;5143441;27;20087;-24
2022/04/24 04:41:25;;;;;;;0.13;0.13;;;;;;;20.37;41.22;99730.38;5151410;27;20034;-24
2022/04/24 04:43:51;;;;;;;0.10;0.10;;;;;;;20.35;41.18;99721.59;5147676;27;20137;-24
2022/04/24 04:46:17;;;;;;;0.10;0.10;;;;;;;20.36;41.17;99731.53;5144481;27;20042;-24
2022/04/24 04:48:42;;;;;;;0.20;0.20;;;;;;;20.37;40.93;99735.91;5142407;27;20485;-24
2022/04/24 04:51:08;;;;;;;0.15;0.15;;;;;;;20.38;40.85;99734.81;5138965;27;20566;-24
2022/04/24 04:53:34;;;;;;;0.20;0.20;;;;;;;20.38;40.99;99734.81;5122666;27;20469;-24
2022/04/24 04:56:00;;;;;;;0.20;0.20;;;;;;;20.39;41.18;99741.97;5148319;27;20081;-24
2022/04/24 04:58:26;;;;;;;0.20;0.20;;;;;;;20.38;41.06;99748.63;5142858;27;20134;-24
2022/04/24 05:00:51;;;;;;;0.20;0.20;;;;;;;20.38;41.08;99745.03;5140620;27;20043;-24
2022/04/24 05:03:17;;;;;;;0.20;0.20;;;;;;;20.38;41.04;99742.25;5147565;27;20158;-24
2022/04/24 05:05:43;;;;;;;0.20;0.20;;;;;;;20.38;40.99;99753.31;5147196;27;20110;-24
2022/04/24 05:08:08;;;;;;;0.20;0.20;;;;;;;20.38;41.20;99762.44;5146802;27;20043;-24
2022/04/24 05:10:34;;;;;;;0.20;0.20;;;;;;;20.37;40.92;99763.56;5140841;27;20235;-24
2022/04/24 05:13:00;;;;;;;0.20;0.20;;;;;;;20.38;41.23;99759.69;5145398;27;20047;-24
2022/04/24 05:15:25;;;;;;;0.20;0.20;;;;;;;20.38;41.27;99765.22;5137276;27;20041;-24
2022/04/24 05:17:52;;;;;;;0.20;0.20;;;;;;;20.37;40.93;99759.97;5145565;27;20069;-24
2022/04/24 05:20:18;;;;;;;0.20;0.20;;;;;;;20.37;41.04;99760.81;5120821;27;20469;-24
2022/04/24 05:22:43;;;;;;;0.20;0.20;;;;;;;20.37;40.88;99762.75;5123406;27;20161;-25
2022/04/24 05:25:11;;;;;;;0.20;0.20;;;;;;;20.37;41.09;99757.22;5150431;27;20039;-25
2022/04/24 05:27:37;;;;;;;0.10;0.10;;;;;;;20.37;41.22;99757.22;5135721;27;20074;-25
2022/04/24 05:30:07;;;;;;;0.20;0.20;;;;;;;20.37;41.21;99763.56;5140668;27;20067;-25
2022/04/24 05:32:41;;;;;;;0.10;0.10;;;;;;;20.37;40.94;99762.75;5142690;27;20125;-25
2022/04/24 05:35:08;;;;;;;0.20;0.20;;;;;;;20.37;41.27;99768.28;5147750;27;20138;-25
2022/04/24 05:37:34;;;;;;;0.20;0.20;;;;;;;20.36;40.96;99770.22;5143802;27;20478;-24
2022/04/24 05:39:59;;;;;;;0.20;0.20;;;;;;;20.37;40.98;99771.84;5148071;27;20081;-25
2022/04/24 05:42:25;;;;;;;0.10;0.10;;;;;;;20.37;41.00;99769.09;5146087;27;20035;-25
2022/04/24 05:44:51;;;;;;;0.20;0.20;;;;;;;20.36;41.03;99770.22;5148823;27;20366;-24
2022/04/24 05:47:16;;;;;;;0.20;0.20;;;;;;;20.37;41.02;99777.38;5141461;27;20096;-24
2022/04/24 05:49:42;;;;;;;0.10;0.10;;;;;;;20.38;41.22;99783.72;5124313;27;20409;-25
2022/04/24 05:52:08;;;;;;;0.20;0.20;;;;;;;20.37;40.92;99782.91;5145025;27;20043;-25
2022/04/24 05:54:34;;;;;;;0.20;0.20;;;;;;;20.38;41.01;99792.03;5142628;27;20095;-25
2022/04/24 05:56:59;;;;;;;0.20;0.20;;;;;;;20.37;40.89;99787.63;5142284;27;20125;-25
2022/04/24 05:59:25;;;;;;;0.20;0.20;;;;;;;20.36;41.22;99789.59;5141729;27;20035;-24
2022/04/24 06:01:50;;;;;;;0.10;0.10;;;;;;;20.37;40.94;99782.91;5145358;27;20392;-25
2022/04/24 06:04:16;;;;;;;0.10;0.10;;;;;;;20.37;41.17;99791.22;5142033;27;20043;-25
2022/04/24 06:06:42;;;;;;;0.20;0.20;;;;;;;20.38;41.27;99792.03;5139206;27;20151;-24
2022/04/24 06:09:08;;;;;;;0.20;0.20;;;;;;;20.38;41.16;99797.56;5142614;27;20082;-24
2022/04/24 06:11:33;;;;;;;0.17;0.17;;;;;;;20.37;40.96;99796.75;5141892;27;20585;-24
2022/04/24 06:13:59;;;;;;;0.20;0.20;;;;;;;20.37;41.06;99793.16;5143840;27;20511;-25
2022/04/24 06:16:25;;;;;;;0.20;0.20;;;;;;;20.37;41.16;99780.16;5139465;27;20389;-25
2022/04/24 06:18:50;;;;;;;0.17;0.17;;;;;;;20.37;41.13;99785.69;5106724;27;20070;-25
2022/04/24 06:21:16;;;;;;;0.20;0.20;;;;;;;20.38;41.12;99792.03;5146124;27;20050;-25
2022/04/24 06:23:42;;;;;;;0.20;0.20;;;;;;;20.36;40.92;99788.78;5137785;27;20039;-25
2022/04/24 06:26:07;;;;;;;0.10;0.10;;;;;;;20.36;41.21;99792.34;5148267;27;20046;-25
2022/04/24 06:28:33;;;;;;;0.20;0.20;;;;;;;20.36;40.97;99792.34;5140435;27;20138;-25
2022/04/24 06:30:59;;;;;;;0.20;0.20;;;;;;;20.36;41.09;99792.34;5144494;27;20046;-25
2022/04/24 06:33:25;;;;;;;0.20;0.20;;;;;;;20.37;40.91;99793.97;5140953;27;20043;-25
2022/04/24 06:35:50;;;;;;;0.20;0.20;;;;;;;20.37;40.97;99788.44;5144107;27;20077;-25
2022/04/24 06:38:22;;;;;;;0.20;0.20;;;;;;;20.38;40.91;99794.78;5141203;27;20058;-25
2022/04/24 06:40:47;;;;;;;0.10;0.10;;;;;;;20.38;41.06;99783.72;5121557;27;20473;-24
2022/04/24 06:43:13;;;;;;;0.20;0.20;;;;;;;20.37;41.15;99795.94;5142654;27;20040;-25
2022/04/24 06:45:40;;;;;;;0.20;0.20;;;;;;;20.37;41.24;99788.44;5146938;27;20035;-24
2022/04/24 06:48:09;;;;;;;0.15;0.15;;;;;;;20.38;40.97;99792.03;5141896;27;20093;-24
2022/04/24 06:50:37;;;;;;;0.20;0.20;;;;;;;20.38;41.00;99797.56;5141772;27;20522;-24
2022/04/24 06:53:05;;;;;;;0.20;0.20;;;;;;;20.38;41.02;99800.31;5128591;27;20066;-25
2022/04/24 06:55:31;;;;;;;;;;;;;;;20.37;40.90;99802.28;5145092;27;20497;-25
2022/04/24 06:57:58;;;;;;;0.20;0.20;;;;;;;20.36;41.20;99799.84;5146775;27;20293;-24
2022/04/24 07:00:25;;;;;;;0.10;0.10;;;;;;;20.35;41.21;99799.03;5124795;27;20133;-25
2022/04/24 07:02:51;;;;;;;0.10;0.10;;;;;;;20.37;41.02;99804.22;5128470;27;20469;-25
2022/04/24 07:05:20;;;;;;;0.20;0.20;;;;;;;20.37;41.21;99801.47;5125627;27;20070;-25
2022/04/24 07:07:46;;;;;;;0.10;0.10;;;;;;;20.36;41.14;99797.88;5125085;27;20081;-25
2022/04/24 07:10:11;;;;;;;0.20;0.20;;;;;;;20.37;41.19;99810.56;5138579;27;20055;-24
2022/04/24 07:12:53;;;;;;;0.20;0.20;;;;;;;20.37;40.91;99809.75;5139149;27;20051;-24
2022/04/24 07:15:20;;;;;;;0.20;0.20;;;;;;;20.36;40.90;99808.94;5138537;27;20063;-24
2022/04/24 07:17:47;;;;;;;0.20;0.20;;;;;;;20.37;41.15;99807.00;5142626;27;20127;-24
2022/04/24 07:20:14;;;;;;;0.20;0.20;;;;;;;20.37;41.10;99805.03;5119958;27;20495;-23
2022/04/24 07:22:46;;;;;;;0.15;0.15;;;;;;;20.37;40.87;99807.81;5121346;27;20509;-24
2022/04/24 07:25:15;;;;;;;0.20;0.20;;;;;;;20.37;41.09;99804.22;5129432;27;20125;-24
2022/04/24 07:27:41;;;;;;;0.20;0.20;;;;;;;20.37;40.93;99810.56;5121803;27;20142;-24
2022/04/24 07:30:13;;;;;;;0.20;0.20;;;;;;;20.37;41.00;99805.03;5120129;27;20067;-25
2022/04/24 07:32:40;;;;;;;0.20;0.20;;;;;;;20.37;41.01;99809.75;5123128;27;20077;-25
2022/04/24 07:35:08;;;;;;;0.20;0.20;;;;;;;20.36;41.03;99820.00;5140457;27;20085;-25
2022/04/24 07:37:33;;;;;;;0.20;0.20;;;;;;;20.37;41.16;99809.75;5143660;27;20429;-25
2022/04/24 07:39:59;;;;;;;0.20;0.20;;;;;;;20.36;41.03;99811.72;5144765;27;20058;-24
2022/04/24 07:42:25;;;;;;;0.20;0.20;;;;;;;20.37;41.15;99807.00;5142844;27;20494;-24
2022/04/24 07:44:51;;;;;;;0.20;0.20;;;;;;;20.37;40.93;99807.81;5136801;27;20039;-26
2022/04/24 07:47:17;;;;;;;0.10;0.10;;;;;;;20.36;40.88;99806.19;5134528;27;20043;-25
2022/04/24 07:49:42;;;;;;;0.20;0.20;;;;;;;20.37;41.14;99804.22;5143144;27;20384;-25
2022/04/24 07:52:08;;;;;;;0.20;0.20;;;;;;;20.36;41.21;99811.72;5142031;27;20055;-24
2022/04/24 07:54:33;;;;;;;0.20;0.20;;;;;;;20.37;40.77;99807.81;5142097;27;20043;-24
2022/04/24 07:56:59;;;;;;;0.17;0.17;;;;;;;20.37;41.00;99807.81;5148739;27;20138;-25
2022/04/24 07:59:25;;;;;;;0.20;0.20;;;;;;;20.36;41.23;99808.13;5124744;27;20039;-25
2022/04/24 08:01:51;;;;;;;0.20;0.20;;;;;;;20.35;40.98;99812.84;5140586;27;20491;-25
2022/04/24 08:04:17;;;;;;;0.10;0.10;;;;;;;20.36;41.17;99808.94;5140862;27;20493;-25
2022/04/24 08:06:43;;;;;;;0.20;0.20;;;;;;;20.36;41.02;99814.47;5148846;27;20115;-25
2022/04/24 08:09:09;;;;;;;0.20;0.20;;;;;;;20.36;40.91;99814.47;5127699;27;20046;-24
2022/04/24 08:11:34;;;;;;;0.20;0.20;;;;;;;20.37;40.86;99818.06;5145845;27;20400;-24
2022/04/24 08:14:00;;;;;;;0.20;0.20;;;;;;;20.36;40.92;99810.91;5142988;27;20043;-25
2022/04/24 08:16:27;;;;;;;0.20;0.20;;;;;;;20.36;41.02;99814.47;5146606;27;20039;-25
2022/04/24 08:18:53;;;;;;;0.20;0.20;;;;;;;20.36;41.13;99817.25;5145378;27;20393;-24
2022/04/24 08:21:18;;;;;;;0.20;0.20;;;;;;;20.36;41.02;99820.00;5143599;27;20070;-24
2022/04/24 08:23:44;;;;;;;0.10;0.10;;;;;;;20.37;40.75;99815.28;5146703;27;20049;-24
2022/04/24 08:26:11;;;;;;;0.20;0.20;;;;;;;20.36;41.06;99810.91;5145605;27;20059;-23
2022/04/24 08:28:36;;;;;;;0.20;0.20;;;;;;;20.35;41.08;99812.84;5130066;27;20066;-25
2022/04/24 08:31:02;;;;;;;0.20;0.20;;;;;;;20.36;41.01;99817.25;5142298;27;20050;-25
2022/04/24 08:33:28;;;;;;;0.10;0.10;;;;;;;20.37;41.19;99818.88;5146641;27;20047;-25
2022/04/24 08:35:54;;;;;;;0.20;0.20;;;;;;;20.36;41.18;99822.78;5143542;27;20189;-25
2022/04/24 08:38:19;;;;;;;0.10;0.10;;;;;;;20.37;41.03;99823.59;5145349;27;20047;-25
2022/04/24 08:40:46;;;;;;;0.15;0.15;;;;;;;20.36;41.05;99828.31;5149410;27;20050;-25
2022/04/24 08:43:13;;;;;;;0.15;0.15;;;;;;;20.37;40.93;99831.88;5147187;27;20135;-25
2022/04/24 08:45:42;;;;;;;0.10;0.10;;;;;;;20.37;41.10;99824.41;5133012;27;20047;-25
2022/04/24 08:48:08;;;;;;;0.20;0.20;;;;;;;20.37;41.06;99831.88;5109233;27;20106;-24
2022/04/24 08:50:33;;;;;;;0.10;0.10;;;;;;;20.36;41.07;99822.78;5141009;27;20035;-24
2022/04/24 08:53:00;;;;;;;0.20;0.20;;;;;;;20.36;40.92;99817.25;5145529;27;20042;-24
2022/04/24 08:55:29;;;;;;;0.20;0.20;;;;;;;20.36;40.89;99821.97;5126358;27;20068;-25
2022/04/24 08:57:55;;;;;;;0.20;0.20;;;;;;;20.36;40.99;99819.19;5126944;27;20392;-24
2022/04/24 09:00:21;;;;;;;0.20;0.20;;;;;;;20.36;41.17;99813.66;5129056;27;20062;-25
2022/04/24 09:02:49;;;;;;;0.20;0.20;;;;;;;20.36;41.09;99828.31;5148390;27;20039;-25
2022/04/24 09:05:15;;;;;;;0.20;0.20;;;;;;;20.36;40.97;99825.53;5141944;27;20038;-25
2022/04/24 09:07:43;;;;;;;0.20;0.20;;;;;;;20.36;41.19;99821.97;5143264;27;20409;-25
2022/04/24 09:10:29;;;;;;;0.17;0.17;;;;;;;20.36;41.15;99825.53;5131290;27;20107;-25
2022/04/24 09:12:55;;;;;;;0.10;0.10;;;;;;;20.36;40.95;99821.97;5143065;27;20042;-25
2022/04/24 09:15:21;;;;;;;0.10;0.10;;;;;;;20.36;41.17;99814.47;5139868;27;20081;-24
2022/04/24 09:17:46;;;;;;;0.20;0.20;;;;;;;20.36;41.02;99822.78;5147214;27;20042;-24
2022/04/24 09:20:19;;;;;;;0.20;0.20;;;;;;;20.36;40.87;99821.97;5139964;27;20080;-25
2022/04/24 09:22:46;;;;;;;0.20;0.20;;;;;;;20.36;40.86;99819.19;5125582;27;20034;-25
2022/04/24 09:25:12;;;;;;;0.20;0.20;;;;;;;20.36;40.92;99825.53;5128862;27;20070;-25
2022/04/24 09:27:39;;;;;;;0.20;0.20;;;;;;;20.38;40.98;99825.22;5128740;27;20078;-25
2022/04/24 09:30:14;;;;;;;0.10;0.10;;;;;;;20.36;41.27;99824.72;5143212;27;20075;-25
2022/04/24 09:32:56;;;;;;;0.20;0.20;;;;;;;20.36;40.93;99825.53;5143515;27;20067;-25
2022/04/24 09:35:24;;;;;;;0.20;0.20;;;;;;;20.36;40.81;99814.47;5147541;27;20046;-25
2022/04/24 09:37:49;;;;;;;0.10;0.10;;;;;;;20.35;41.17;99812.84;5125762;27;20043;-25
2022/04/24 09:40:15;;;;;;;0.10;0.10;;;;;;;20.37;40.97;99823.59;5136850;27;20072;-24
2022/04/24 09:42:51;;;;;;;0.10;0.10;;;;;;;20.36;40.82;99814.47;5145251;27;20051;-24
2022/04/24 09:45:23;;;;;;;0.20;0.20;;;;;;;20.37;41.11;99821.63;5107928;27;20067;-25
2022/04/24 09:48:12;;;;;;;0.20;0.20;;;;;;;20.36;40.81;99819.19;5118085;27;20312;-24
2022/04/24 09:50:38;;;;;;;0.20;0.20;;;;;;;20.36;40.92;99819.19;5139881;27;20465;-24
2022/04/24 09:53:05;;;;;;;0.10;0.10;;;;;;;20.36;41.03;99819.19;5146184;27;20046;-24
2022/04/24 09:55:31;;;;;;;0.10;0.10;;;;;;;20.36;40.91;99819.19;5125770;27;20086;-24
2022/04/24 09:58:01;;;;;;;0.10;0.10;;;;;;;20.37;40.94;99823.59;5125876;27;20050;-24
2022/04/24 10:00:27;;;;;;;0.10;0.10;;;;;;;20.37;40.98;99820.81;5147211;27;20096;-25
2022/04/24 10:02:54;;;;;;;0.20;0.20;;;;;;;20.37;41.16;99815.28;5139384;27;20100;-24
2022/04/24 10:05:20;;;;;;;0.10;0.10;;;;;;;20.36;41.11;99821.97;5139917;27;20397;-25
2022/04/24 10:07:46;;;;;;;0.20;0.20;;;;;;;20.37;41.07;99818.06;5138890;27;20501;-24
2022/04/24 10:10:14;;;;;;;0.10;0.10;;;;;;;20.37;40.96;99823.59;5143334;27;20074;-24
2022/04/24 10:12:43;;;;;;;0.10;0.10;;;;;;;20.36;41.03;99820.00;5145323;27;20049;-25
2022/04/24 10:15:12;;;;;;;0.10;0.10;;;;;;;20.36;40.89;99831.06;5142985;27;20070;-24
2022/04/24 10:18:04;;;;;;;0.20;0.20;;;;;;;20.36;40.96;99822.78;5123193;27;20085;-25
2022/04/24 10:21:00;;;;;;;0.20;0.20;;;;;;;20.36;40.96;99833.84;5126347;27;20082;-24
2022/04/24 10:23:27;;;;;;;0.10;0.10;;;;;;;20.35;40.82;99837.72;5128063;27;20073;-24
2022/04/24 10:25:53;;;;;;;0.20;0.20;;;;;;;20.37;40.81;99837.41;5135877;27;20067;-24
2022/04/24 10:28:20;;;;;;;0.17;0.17;;;;;;;20.36;41.10;99842.13;5143619;27;20054;-24
2022/04/24 10:31:02;;;;;;;0.20;0.20;;;;;;;20.36;40.94;99836.59;5140844;27;20489;-24
2022/04/24 10:33:30;;;;;;;0.10;0.10;;;;;;;20.36;41.24;99835.78;5126520;27;21430;-24
2022/04/24 10:35:59;;;;;;;0.10;0.10;;;;;;;20.36;40.92;99833.00;5145674;27;20571;-24
2022/04/24 10:38:27;;;;;;;0.20;0.20;;;;;;;20.36;40.86;99830.25;5139270;27;20074;-23
2022/04/24 10:41:02;;;;;;;0.10;0.10;;;;;;;20.35;41.11;99840.50;5142305;27;20170;-24
2022/04/24 10:43:49;;;;;;;0.10;0.10;;;;;;;20.36;40.96;99833.84;5143626;27;20096;-24
2022/04/24 10:46:33;;;;;;;0.10;0.10;;;;;;;20.35;41.12;99846.03;5127019;27;20738;-24
2022/04/24 10:49:08;;;;;;;0.10;0.10;;;;;;;20.36;41.16;99833.84;5140410;27;20069;-24
2022/04/24 10:51:35;;;;;;;0.10;0.10;;;;;;;20.36;41.22;99839.38;5142028;27;20493;-25
2022/04/24 10:54:07;;;;;;;0.10;0.10;;;;;;;20.37;41.24;99834.66;5144832;27;20525;-25
2022/04/24 10:56:33;;;;;;;0.20;0.20;;;;;;;20.36;41.10;99838.53;5146915;27;20484;-25
2022/04/24 10:59:08;;;;;;;0.10;0.10;;;;;;;20.38;41.07;99833.50;5138235;27;20043;-25
2022/04/24 11:01:36;;;;;;;0.10;0.10;;;;;;;20.37;41.03;99831.88;5121916;27;20087;-25
2022/04/24 11:04:05;;;;;;;0.10;0.10;;;;;;;20.36;41.19;99838.53;5138610;27;20071;-25
2022/04/24 11:06:30;;;;;;;0.10;0.10;;;;;;;20.36;41.11;99836.59;5138825;27;20454;-25
2022/04/24 11:09:06;;;;;;;0.20;0.20;;;;;;;20.36;41.11;99836.59;5144778;27;20045;-25
2022/04/24 11:11:33;;;;;;;0.20;0.20;;;;;;;20.37;40.91;99846.53;5141135;27;20082;-25
2022/04/24 11:14:00;;;;;;;0.10;0.10;;;;;;;20.36;40.90;99846.84;5139103;27;20449;-25
2022/04/24 11:16:26;;;;;;;0.20;0.20;;;;;;;20.37;41.01;99831.88;5140840;27;20425;-25
2022/04/24 11:18:52;;;;;;;0.20;0.20;;;;;;;20.36;41.03;99831.06;5139698;27;20096;-25
2022/04/24 11:21:19;;;;;;;0.20;0.20;;;;;;;20.37;41.16;99832.69;5142707;27;20053;-25
2022/04/24 11:23:45;;;;;;;0.20;0.20;;;;;;;20.37;41.10;99843.75;5142252;27;20132;-25
2022/04/24 11:26:12;;;;;;;0.20;0.20;;;;;;;20.37;41.19;99829.13;5123559;28;20506;-25
2022/04/24 11:28:41;;;;;;;0.20;0.20;;;;;;;20.37;40.98;99832.69;5143091;27;20493;-25
2022/04/24 11:31:18;;;;;;;0.20;0.20;;;;;;;20.36;41.19;99833.00;5137928;27;20047;-25
2022/04/24 11:34:01;;;;;;;0.20;0.20;;;;;;;20.37;41.07;99832.69;5122269;27;20043;-25